Time;durP1;ratioP1;P1;durP2;ratioP2;P2;SDS_P1;SDS_P2;PMS_P1;PMS_P2;Temp;Humidity;BMP_temperature;BMP_pressure;BME280_temperature;BME280_humidity;BME280_pressure;Samples;Min_cycle;Max_cycle;Signal;HPM_P1;HPM_P2
2024/01/23 00:00:45;;;;;;;15.33;4.87;;;7.10;99.90;;;;;;5128939;28;20191;-63
2024/01/23 00:03:13;;;;;;;15.87;4.43;;;7.10;99.90;;;;;;5129217;28;20215;-66
2024/01/23 00:05:41;;;;;;;14.57;4.53;;;7.00;99.90;;;;;;5129526;28;20288;-64
2024/01/23 00:08:10;;;;;;;11.80;4.00;;;7.00;99.90;;;;;;5129180;28;20198;-64
2024/01/23 00:10:38;;;;;;;10.80;4.07;;;7.00;99.90;;;;;;5129291;28;20195;-64
2024/01/23 00:13:06;;;;;;;5.60;3.33;;;7.00;99.90;;;;;;5129039;28;20661;-66
2024/01/23 00:15:36;;;;;;;15.17;4.70;;;7.00;99.90;;;;;;5128829;28;20209;-63
2024/01/23 00:18:06;;;;;;;10.80;4.30;;;6.90;99.90;;;;;;5128947;28;20229;-65
2024/01/23 00:20:34;;;;;;;12.83;4.13;;;6.90;99.90;;;;;;5131698;27;20206;-66
2024/01/23 00:23:03;;;;;;;13.57;5.13;;;6.90;99.90;;;;;;5132866;27;20186;-65
2024/01/23 00:25:31;;;;;;;11.40;4.47;;;6.90;99.90;;;;;;5132827;27;20192;-64
2024/01/23 00:28:00;;;;;;;13.13;4.27;;;6.90;99.90;;;;;;5132632;27;20740;-65
2024/01/23 00:30:28;;;;;;;10.63;4.23;;;7.00;99.90;;;;;;5132641;27;20649;-66
2024/01/23 00:32:58;;;;;;;16.63;4.37;;;7.00;99.90;;;;;;5132739;27;20648;-64
2024/01/23 00:35:25;;;;;;;17.67;4.17;;;7.10;99.90;;;;;;5132767;27;20199;-64
2024/01/23 00:37:53;;;;;;;9.70;4.13;;;7.10;99.90;;;;;;5116657;27;20221;-63
2024/01/23 00:40:22;;;;;;;12.93;4.13;;;7.10;99.90;;;;;;5132239;27;20202;-65
2024/01/23 00:42:50;;;;;;;12.83;4.03;;;7.10;99.90;;;;;;5132415;27;20199;-65
2024/01/23 00:45:18;;;;;;;12.97;4.23;;;7.10;99.90;;;;;;5132209;27;20225;-67
2024/01/23 00:47:47;;;;;;;8.27;3.67;;;7.20;99.90;;;;;;5132356;27;20200;-65
2024/01/23 00:50:17;;;;;;;8.77;4.00;;;7.20;99.90;;;;;;5132274;27;20231;-64
2024/01/23 00:52:45;;;;;;;12.73;4.07;;;7.10;99.90;;;;;;5132196;27;20192;-65
2024/01/23 00:55:13;;;;;;;17.70;4.53;;;7.00;99.90;;;;;;5132032;27;20678;-64
2024/01/23 00:57:42;;;;;;;12.13;5.43;;;6.90;99.90;;;;;;5132296;27;20195;-64
2024/01/23 01:00:11;;;;;;;6.80;4.07;;;6.80;99.90;;;;;;5131948;27;20204;-64
2024/01/23 01:02:40;;;;;;;17.03;3.97;;;6.80;99.90;;;;;;5132292;27;20195;-66
2024/01/23 01:05:08;;;;;;;11.97;4.50;;;6.70;99.90;;;;;;5132032;27;20243;-65
2024/01/23 01:07:38;;;;;;;12.23;4.10;;;6.80;99.90;;;;;;5120739;27;20242;-64
2024/01/23 01:10:07;;;;;;;12.77;4.13;;;6.70;99.90;;;;;;5127286;27;20197;-63
2024/01/23 01:12:35;;;;;;;14.17;4.00;;;6.70;99.90;;;;;;5131974;27;20191;-67
2024/01/23 01:15:04;;;;;;;9.73;4.20;;;6.70;99.90;;;;;;5131655;27;20542;-67
2024/01/23 01:17:33;;;;;;;11.47;3.80;;;6.70;99.90;;;;;;5131684;27;20204;-65
2024/01/23 01:20:01;;;;;;;12.13;3.47;;;6.70;99.90;;;;;;5131692;27;20206;-64
2024/01/23 01:22:29;;;;;;;11.37;3.93;;;6.60;99.90;;;;;;5131880;27;20209;-65
2024/01/23 01:24:59;;;;;;;9.13;4.30;;;6.60;99.90;;;;;;5131613;27;20293;-64
2024/01/23 01:27:28;;;;;;;9.77;4.53;;;6.50;99.90;;;;;;5131698;27;20207;-65
2024/01/23 01:29:56;;;;;;;9.40;3.80;;;6.60;99.90;;;;;;5131534;27;20231;-64
2024/01/23 01:32:24;;;;;;;10.23;3.67;;;6.60;99.90;;;;;;5130091;27;20198;-65
2024/01/23 01:34:53;;;;;;;11.17;4.53;;;6.60;99.90;;;;;;5131464;27;20200;-67
2024/01/23 01:37:21;;;;;;;13.77;3.90;;;6.70;99.90;;;;;;5124388;27;20204;-65
2024/01/23 01:39:49;;;;;;;11.23;4.20;;;6.60;99.90;;;;;;5121978;27;20203;-65
2024/01/23 01:42:19;;;;;;;17.33;4.57;;;6.60;99.90;;;;;;5131532;27;20615;-65
2024/01/23 01:44:47;;;;;;;13.17;4.67;;;6.60;99.90;;;;;;5131291;27;20222;-64
2024/01/23 01:47:16;;;;;;;13.27;3.93;;;6.60;99.90;;;;;;5131165;27;20568;-64
2024/01/23 01:49:45;;;;;;;17.23;4.67;;;6.50;99.90;;;;;;5131149;27;20206;-68
2024/01/23 01:52:13;;;;;;;10.73;4.10;;;6.50;99.90;;;;;;5131055;27;20609;-64
2024/01/23 01:54:43;;;;;;;12.93;4.43;;;6.50;99.90;;;;;;5131216;27;20204;-65
2024/01/23 01:57:13;;;;;;;17.43;4.40;;;6.50;99.90;;;;;;5131330;27;20682;-64
2024/01/23 01:59:43;;;;;;;9.80;4.73;;;6.50;99.90;;;;;;5130881;27;20682;-65
2024/01/23 02:02:12;;;;;;;8.37;3.77;;;6.50;99.90;;;;;;5130816;27;20203;-64
2024/01/23 02:04:41;;;;;;;10.13;3.73;;;6.50;99.90;;;;;;5130776;27;20214;-64
2024/01/23 02:07:09;;;;;;;11.97;4.33;;;6.40;99.90;;;;;;5127638;27;20233;-65
2024/01/23 02:09:38;;;;;;;11.43;3.60;;;6.50;99.90;;;;;;5118197;27;20660;-69
2024/01/23 02:12:08;;;;;;;13.00;4.20;;;6.50;99.90;;;;;;5130794;27;20191;-64
2024/01/23 02:14:37;;;;;;;7.13;3.43;;;6.60;99.90;;;;;;5130717;27;20191;-66
2024/01/23 02:17:07;;;;;;;10.33;3.83;;;6.50;99.90;;;;;;5130447;27;20195;-65
2024/01/23 02:19:35;;;;;;;10.63;3.90;;;6.50;99.90;;;;;;5130562;27;20588;-63
2024/01/23 02:22:03;;;;;;;11.40;3.90;;;6.50;99.90;;;;;;5130466;27;20222;-65
2024/01/23 02:24:33;;;;;;;10.30;3.70;;;6.40;99.90;;;;;;5130463;27;20223;-65
2024/01/23 02:27:01;;;;;;;13.03;4.80;;;6.50;99.90;;;;;;5130585;27;20644;-65
2024/01/23 02:29:30;;;;;;;12.67;5.20;;;6.30;99.90;;;;;;5130380;27;20226;-64
2024/01/23 02:31:58;;;;;;;10.07;4.23;;;6.30;99.90;;;;;;5130183;27;20229;-66
2024/01/23 02:34:27;;;;;;;8.57;3.57;;;6.40;99.90;;;;;;5130579;27;20191;-64
2024/01/23 02:36:55;;;;;;;9.90;4.00;;;6.40;99.90;;;;;;5130404;27;20199;-64
2024/01/23 02:39:24;;;;;;;12.27;3.87;;;6.40;99.90;;;;;;5130143;27;20231;-66
2024/01/23 02:41:54;;;;;;;12.37;4.23;;;6.40;99.90;;;;;;5130240;27;20203;-64
2024/01/23 02:44:22;;;;;;;12.00;4.93;;;6.40;99.90;;;;;;5130310;27;20199;-65
2024/01/23 02:46:52;;;;;;;10.10;4.40;;;6.40;99.90;;;;;;5130539;27;20256;-64
2024/01/23 02:49:20;;;;;;;12.13;3.50;;;6.40;99.90;;;;;;5130237;27;20223;-64
2024/01/23 02:51:49;;;;;;;12.37;3.97;;;6.40;99.90;;;;;;5130306;27;20248;-64
2024/01/23 02:54:18;;;;;;;12.03;3.90;;;6.40;99.90;;;;;;5130153;27;20275;-65
2024/01/23 02:56:46;;;;;;;13.40;3.67;;;6.40;99.90;;;;;;5129953;27;20322;-64
2024/01/23 02:59:16;;;;;;;14.53;3.80;;;6.50;99.90;;;;;;5129958;27;20183;-64
2024/01/23 03:01:44;;;;;;;12.73;4.30;;;6.40;99.90;;;;;;5129650;27;20186;-64
2024/01/23 03:04:13;;;;;;;18.90;4.20;;;6.40;99.90;;;;;;5130074;27;20206;-65
2024/01/23 03:06:41;;;;;;;13.50;4.40;;;6.30;99.90;;;;;;5129652;27;20805;-64
2024/01/23 03:09:10;;;;;;;13.90;4.60;;;6.40;99.90;;;;;;5137610;27;20191;-65
2024/01/23 03:11:38;;;;;;;11.67;4.70;;;6.50;99.90;;;;;;5133044;27;20265;-65
2024/01/23 03:14:07;;;;;;;9.63;4.40;;;6.50;99.90;;;;;;5109116;28;20267;-63
2024/01/23 03:16:36;;;;;;;10.20;3.57;;;6.50;99.90;;;;;;5108981;28;20204;-65
2024/01/23 03:19:05;;;;;;;8.33;4.17;;;6.60;99.90;;;;;;5112236;28;20207;-65
2024/01/23 03:21:33;;;;;;;13.83;3.83;;;6.60;99.90;;;;;;5129648;27;20203;-63
2024/01/23 03:24:02;;;;;;;14.20;4.33;;;6.60;99.90;;;;;;5129773;27;20717;-64
2024/01/23 03:26:30;;;;;;;16.03;5.00;;;6.50;99.90;;;;;;5129866;27;20333;-65
2024/01/23 03:28:58;;;;;;;10.93;4.07;;;6.50;99.90;;;;;;5129859;27;20191;-63
2024/01/23 03:31:27;;;;;;;11.57;4.03;;;6.40;99.90;;;;;;5129718;27;20202;-63
2024/01/23 03:33:56;;;;;;;16.33;4.43;;;6.40;99.90;;;;;;5129631;28;20204;-65
2024/01/23 03:36:25;;;;;;;12.77;4.13;;;6.40;99.90;;;;;;5127211;28;20199;-65
2024/01/23 03:38:53;;;;;;;13.07;4.30;;;6.30;99.90;;;;;;5109008;28;20246;-64
2024/01/23 03:41:21;;;;;;;11.27;4.30;;;6.40;99.90;;;;;;5108872;28;20203;-64
2024/01/23 03:43:50;;;;;;;10.93;4.20;;;6.30;99.90;;;;;;5109096;28;20218;-64
2024/01/23 03:46:18;;;;;;;12.63;3.93;;;6.30;99.90;;;;;;5108688;28;20709;-64
2024/01/23 03:48:46;;;;;;;9.57;3.77;;;6.30;99.90;;;;;;5108915;28;20227;-63
2024/01/23 03:51:16;;;;;;;10.73;3.90;;;6.30;99.90;;;;;;5108789;28;20267;-62
2024/01/23 03:53:45;;;;;;;16.37;5.53;;;6.30;99.90;;;;;;5108735;28;20269;-64
2024/01/23 03:56:13;;;;;;;13.60;4.30;;;6.40;99.90;;;;;;5113580;27;20261;-63
2024/01/23 03:58:42;;;;;;;13.60;4.50;;;6.40;99.90;;;;;;5133633;27;20564;-64
2024/01/23 04:01:10;;;;;;;11.77;4.27;;;6.40;99.90;;;;;;5133070;27;20679;-63
2024/01/23 04:03:38;;;;;;;14.80;4.50;;;6.30;99.90;;;;;;5112966;28;20279;-64
2024/01/23 04:06:07;;;;;;;9.90;4.40;;;6.30;99.90;;;;;;5112624;28;20276;-64
2024/01/23 04:08:37;;;;;;;9.23;3.80;;;6.40;99.90;;;;;;5095801;28;20207;-63
2024/01/23 04:11:05;;;;;;;11.37;4.40;;;6.50;99.90;;;;;;5112721;28;20200;-64
2024/01/23 04:13:34;;;;;;;11.83;4.10;;;6.60;99.90;;;;;;5112731;28;20192;-63
2024/01/23 04:16:02;;;;;;;9.20;4.20;;;6.60;99.90;;;;;;5112594;28;20196;-64
2024/01/23 04:18:31;;;;;;;17.27;5.33;;;6.50;99.90;;;;;;5112383;28;20231;-64
2024/01/23 04:20:59;;;;;;;12.27;6.30;;;6.40;99.90;;;;;;5112421;28;20196;-64
2024/01/23 04:23:28;;;;;;;11.67;5.57;;;6.50;99.90;;;;;;5112297;28;20176;-64
2024/01/23 04:25:58;;;;;;;13.43;4.37;;;6.50;99.90;;;;;;5115263;27;20696;-63
2024/01/23 04:28:26;;;;;;;13.20;4.70;;;6.50;99.90;;;;;;5132809;27;20800;-64
2024/01/23 04:30:55;;;;;;;15.90;4.60;;;6.50;99.90;;;;;;5132833;27;20195;-63
2024/01/23 04:33:25;;;;;;;14.33;4.20;;;6.50;99.90;;;;;;5132674;27;20196;-64
2024/01/23 04:35:53;;;;;;;11.10;4.40;;;6.40;99.90;;;;;;5132560;27;20248;-64
2024/01/23 04:38:21;;;;;;;12.20;4.30;;;6.50;99.90;;;;;;5132256;27;20231;-66
2024/01/23 04:40:50;;;;;;;9.60;3.87;;;6.50;99.90;;;;;;5132714;27;20198;-64
2024/01/23 04:43:19;;;;;;;13.33;4.60;;;6.40;99.90;;;;;;5132757;27;20207;-65
2024/01/23 04:45:48;;;;;;;12.17;4.20;;;6.40;99.90;;;;;;5132542;27;20579;-65
2024/01/23 04:48:16;;;;;;;8.60;4.23;;;6.30;99.90;;;;;;5132319;27;20665;-65
2024/01/23 04:50:44;;;;;;;10.67;3.93;;;6.20;99.90;;;;;;5132472;27;20205;-65
2024/01/23 04:53:12;;;;;;;17.73;4.37;;;6.20;99.90;;;;;;5132770;27;20677;-64
2024/01/23 04:55:41;;;;;;;16.10;5.07;;;6.30;99.90;;;;;;5132712;27;20203;-64
2024/01/23 04:58:09;;;;;;;13.80;4.77;;;6.40;99.90;;;;;;5132611;27;20192;-65
2024/01/23 05:00:39;;;;;;;15.40;4.67;;;6.30;99.90;;;;;;5132288;27;20305;-65
2024/01/23 05:03:07;;;;;;;13.50;4.43;;;6.40;99.90;;;;;;5131977;27;20194;-65
2024/01/23 05:05:35;;;;;;;8.93;3.80;;;6.40;99.90;;;;;;5131933;27;20194;-65
2024/01/23 05:08:05;;;;;;;13.37;4.43;;;6.40;99.90;;;;;;5115137;27;20624;-65
2024/01/23 05:10:33;;;;;;;10.10;4.73;;;6.40;99.90;;;;;;5132100;27;20195;-64
2024/01/23 05:13:01;;;;;;;13.83;4.27;;;6.40;99.90;;;;;;5132147;27;20200;-66
2024/01/23 05:15:30;;;;;;;13.17;4.90;;;6.40;99.90;;;;;;5131770;27;20957;-65
2024/01/23 05:17:59;;;;;;;14.23;4.97;;;6.50;99.90;;;;;;5131793;27;20196;-65
2024/01/23 05:20:28;;;;;;;13.03;3.90;;;6.30;99.90;;;;;;5131920;27;20203;-64
2024/01/23 05:22:56;;;;;;;18.60;4.57;;;6.40;99.90;;;;;;5131745;27;20187;-65
2024/01/23 05:25:25;;;;;;;12.50;3.80;;;6.50;99.90;;;;;;5131782;27;20353;-65
2024/01/23 05:27:53;;;;;;;13.47;4.20;;;6.40;99.90;;;;;;5131710;27;20225;-65
2024/01/23 05:30:21;;;;;;;11.13;4.40;;;6.40;99.90;;;;;;5131630;27;20203;-64
2024/01/23 05:32:51;;;;;;;14.97;4.53;;;6.50;99.90;;;;;;5131395;27;20241;-64
2024/01/23 05:35:20;;;;;;;11.80;4.30;;;6.40;99.90;;;;;;5131647;27;20931;-66
2024/01/23 05:37:49;;;;;;;15.13;4.70;;;6.40;99.90;;;;;;5116808;27;20239;-64
2024/01/23 05:40:17;;;;;;;14.17;4.20;;;6.40;99.90;;;;;;5110103;28;20573;-63
2024/01/23 05:42:46;;;;;;;10.17;4.17;;;6.40;99.90;;;;;;5131585;27;20251;-65
2024/01/23 05:45:14;;;;;;;12.43;3.97;;;6.40;99.90;;;;;;5131532;27;20661;-64
2024/01/23 05:47:42;;;;;;;7.67;4.40;;;6.30;99.90;;;;;;5131156;27;20223;-64
2024/01/23 05:50:11;;;;;;;17.03;4.27;;;6.30;99.90;;;;;;5131370;27;20294;-65
2024/01/23 05:52:40;;;;;;;18.13;6.03;;;6.30;99.90;;;;;;5131196;27;20683;-65
2024/01/23 05:55:09;;;;;;;29.13;6.27;;;6.30;99.90;;;;;;5131213;27;20191;-66
2024/01/23 05:57:37;;;;;;;12.10;4.30;;;6.30;99.90;;;;;;5131004;27;20203;-64
2024/01/23 06:00:09;;;;;;;10.37;3.73;;;6.20;99.90;;;;;;5131082;27;20195;-65
2024/01/23 06:02:38;;;;;;;11.83;4.13;;;6.20;99.90;;;;;;5130932;27;20199;-64
2024/01/23 06:05:08;;;;;;;16.17;5.10;;;6.30;99.90;;;;;;5131063;27;20259;-65
2024/01/23 06:07:41;;;;;;;13.53;4.10;;;6.40;99.90;;;;;;5130988;27;20595;-65
2024/01/23 06:10:11;;;;;;;15.37;4.67;;;6.30;99.90;;;;;;5130874;27;20195;-65
2024/01/23 06:12:40;;;;;;;12.90;4.87;;;6.30;99.90;;;;;;5130821;27;20263;-65
2024/01/23 06:15:09;;;;;;;12.20;4.40;;;6.20;99.90;;;;;;5130716;27;20203;-65
2024/01/23 06:17:38;;;;;;;16.80;4.70;;;6.20;99.90;;;;;;5129563;27;20190;-64
2024/01/23 06:20:07;;;;;;;13.80;4.90;;;6.20;99.90;;;;;;5130459;27;21065;-66
2024/01/23 06:22:36;;;;;;;11.90;4.43;;;6.10;99.90;;;;;;5130487;27;20241;-64
2024/01/23 06:25:06;;;;;;;13.40;5.17;;;6.10;99.90;;;;;;5130274;27;20214;-65
2024/01/23 06:27:36;;;;;;;13.20;4.63;;;6.10;99.90;;;;;;5130210;27;20223;-64
2024/01/23 06:30:07;;;;;;;10.47;5.10;;;6.10;99.90;;;;;;5130302;27;20195;-63
2024/01/23 06:32:36;;;;;;;15.27;4.50;;;6.00;99.90;;;;;;5130121;27;20206;-64
2024/01/23 06:35:05;;;;;;;14.07;4.87;;;6.10;99.90;;;;;;5130167;27;20200;-64
2024/01/23 06:37:34;;;;;;;13.07;4.43;;;6.20;99.90;;;;;;5129920;27;20216;-64
2024/01/23 06:40:03;;;;;;;9.87;4.73;;;6.10;99.90;;;;;;5130312;27;20561;-64
2024/01/23 06:42:32;;;;;;;12.70;4.77;;;6.10;99.90;;;;;;5111356;27;20207;-64
2024/01/23 06:45:02;;;;;;;11.30;4.60;;;6.10;99.90;;;;;;5130193;27;20233;-63
2024/01/23 06:47:31;;;;;;;11.43;4.13;;;6.10;99.90;;;;;;5129988;27;20233;-65
2024/01/23 06:49:59;;;;;;;11.43;4.00;;;6.10;99.90;;;;;;5129995;27;20560;-64
2024/01/23 06:52:28;;;;;;;11.23;4.00;;;6.10;99.90;;;;;;5129888;27;20599;-63
2024/01/23 06:54:56;;;;;;;13.93;4.57;;;5.90;99.90;;;;;;5111245;27;20238;-64
2024/01/23 06:57:24;;;;;;;12.23;4.40;;;6.00;99.90;;;;;;5129827;27;20195;-65
2024/01/23 06:59:53;;;;;;;16.23;4.70;;;6.00;99.90;;;;;;5129673;27;20211;-64
2024/01/23 07:02:22;;;;;;;11.00;4.13;;;6.10;99.90;;;;;;5129983;27;20775;-65
2024/01/23 07:04:51;;;;;;;11.77;4.00;;;6.00;99.90;;;;;;5129799;27;20279;-64
2024/01/23 07:07:20;;;;;;;12.40;4.67;;;6.00;99.90;;;;;;5129884;27;20227;-61
2024/01/23 07:09:48;;;;;;;13.20;4.57;;;6.00;99.90;;;;;;5129826;27;20743;-64
2024/01/23 07:12:17;;;;;;;10.03;4.13;;;6.00;99.90;;;;;;5129761;27;20203;-65
2024/01/23 07:14:45;;;;;;;14.73;4.83;;;5.90;99.90;;;;;;5129727;27;20628;-64
2024/01/23 07:17:15;;;;;;;9.67;4.20;;;5.90;99.90;;;;;;5129685;27;20206;-64
2024/01/23 07:19:45;;;;;;;9.90;5.17;;;6.10;99.90;;;;;;5129586;27;20195;-65
2024/01/23 07:22:13;;;;;;;12.97;4.03;;;6.20;99.90;;;;;;5129598;27;20187;-64
2024/01/23 07:24:41;;;;;;;15.57;4.67;;;6.10;99.90;;;;;;5129747;27;20198;-64
2024/01/23 07:27:10;;;;;;;14.17;5.50;;;6.10;99.90;;;;;;5129569;28;20203;-65
2024/01/23 07:29:39;;;;;;;13.23;4.20;;;6.10;99.90;;;;;;5129424;27;20306;-66
2024/01/23 07:32:07;;;;;;;9.83;4.63;;;6.10;99.90;;;;;;5129349;27;20195;-65
2024/01/23 07:34:36;;;;;;;10.90;5.53;;;6.20;99.90;;;;;;5129515;28;20199;-65
2024/01/23 07:37:05;;;;;;;10.60;4.40;;;6.30;99.90;;;;;;5129495;28;20265;-65
2024/01/23 07:39:34;;;;;;;10.13;4.60;;;6.50;99.90;;;;;;5129371;28;20761;-65
2024/01/23 07:42:02;;;;;;;12.43;4.47;;;6.50;99.90;;;;;;5129504;28;20240;-65
2024/01/23 07:44:32;;;;;;;10.83;5.00;;;6.40;99.90;;;;;;5129552;28;20195;-64
2024/01/23 07:47:00;;;;;;;12.17;5.00;;;6.60;99.90;;;;;;5129318;28;20230;-64
2024/01/23 07:49:29;;;;;;;10.77;4.97;;;6.50;99.90;;;;;;5129298;28;20241;-65
2024/01/23 07:51:57;;;;;;;15.93;4.87;;;6.50;99.90;;;;;;5129357;28;20200;-65
2024/01/23 07:54:27;;;;;;;10.20;4.57;;;6.50;99.90;;;;;;5129320;28;20633;-64
2024/01/23 07:56:55;;;;;;;7.77;4.20;;;6.60;99.90;;;;;;5129490;28;20714;-65
2024/01/23 07:59:23;;;;;;;16.27;4.80;;;6.50;99.90;;;;;;5129499;28;20280;-65
2024/01/23 08:01:52;;;;;;;14.03;4.67;;;6.50;99.90;;;;;;5129425;28;20696;-65
2024/01/23 08:04:20;;;;;;;12.73;4.33;;;6.50;99.90;;;;;;5129128;28;20653;-64
2024/01/23 08:06:48;;;;;;;10.60;4.67;;;6.60;99.90;;;;;;5129223;28;20276;-65
2024/01/23 08:09:17;;;;;;;14.80;6.17;;;6.60;99.90;;;;;;5128837;28;20314;-68
2024/01/23 08:11:47;;;;;;;10.47;4.33;;;6.60;99.90;;;;;;5121404;28;20554;-63
2024/01/23 08:14:15;;;;;;;10.50;5.13;;;6.60;99.90;;;;;;5115836;28;20207;-63
2024/01/23 08:16:44;;;;;;;11.37;4.30;;;6.70;99.90;;;;;;5128235;28;20195;-63
2024/01/23 08:19:13;;;;;;;9.00;4.40;;;6.80;99.90;;;;;;5128652;28;20270;-63
2024/01/23 08:21:41;;;;;;;11.37;5.20;;;6.80;99.90;;;;;;5128864;28;20199;-63
2024/01/23 08:24:12;;;;;;;8.73;5.37;;;6.80;99.90;;;;;;5128515;28;20196;-70
2024/01/23 08:26:41;;;;;;;13.60;4.90;;;6.70;99.90;;;;;;5128272;28;20195;-62
2024/01/23 08:29:11;;;;;;;10.60;4.57;;;6.80;99.90;;;;;;5128514;28;20302;-68
2024/01/23 08:31:39;;;;;;;14.43;4.53;;;6.90;99.90;;;;;;5128567;28;20197;-67
2024/01/23 08:34:08;;;;;;;17.00;5.57;;;6.80;99.90;;;;;;5128552;28;20702;-64
2024/01/23 08:36:37;;;;;;;10.70;5.07;;;6.90;99.90;;;;;;5128684;28;20228;-67
2024/01/23 08:39:05;;;;;;;12.80;5.23;;;6.80;99.90;;;;;;5127826;28;20228;-68
2024/01/23 08:41:34;;;;;;;9.50;4.37;;;6.80;99.90;;;;;;5130781;27;20240;-63
2024/01/23 08:44:02;;;;;;;10.33;3.70;;;6.90;99.90;;;;;;5131870;27;20195;-66
2024/01/23 08:46:32;;;;;;;10.13;5.67;;;7.00;99.90;;;;;;5131905;27;20193;-64
2024/01/23 08:49:00;;;;;;;9.80;4.77;;;7.20;99.90;;;;;;5131954;27;20215;-67
2024/01/23 08:51:29;;;;;;;9.93;4.07;;;7.30;99.90;;;;;;5132412;27;20827;-64
2024/01/23 08:53:57;;;;;;;10.80;4.33;;;7.30;99.90;;;;;;5131814;27;20274;-63
2024/01/23 08:56:26;;;;;;;14.27;5.37;;;7.20;99.90;;;;;;5131937;27;20192;-65
2024/01/23 08:58:54;;;;;;;11.57;4.40;;;7.20;99.90;;;;;;5131956;27;20210;-68
2024/01/23 09:01:22;;;;;;;11.33;4.20;;;7.10;99.90;;;;;;5131927;27;20199;-64
2024/01/23 09:03:52;;;;;;;12.23;4.60;;;7.20;99.90;;;;;;5131784;27;20561;-64
2024/01/23 09:06:21;;;;;;;20.80;7.03;;;7.10;99.90;;;;;;5131729;27;21053;-64
2024/01/23 09:08:49;;;;;;;8.63;4.00;;;7.10;99.90;;;;;;5131211;27;20215;-68
2024/01/23 09:11:18;;;;;;;9.63;4.53;;;7.30;99.90;;;;;;5113507;27;20940;-65
2024/01/23 09:13:47;;;;;;;15.97;5.53;;;7.40;99.90;;;;;;5113078;27;20232;-70
2024/01/23 09:16:15;;;;;;;14.33;4.30;;;7.30;99.90;;;;;;5111064;28;20184;-69
2024/01/23 09:18:48;;;;;;;12.03;4.80;;;7.30;99.90;;;;;;5111153;28;20198;-67
2024/01/23 09:21:18;;;;;;;11.30;5.90;;;7.30;99.90;;;;;;5111194;28;20742;-64
2024/01/23 09:23:47;;;;;;;14.57;4.63;;;7.30;99.90;;;;;;5110312;28;20227;-66
2024/01/23 09:26:15;;;;;;;15.27;5.07;;;7.20;99.90;;;;;;5111129;28;20202;-68
2024/01/23 09:28:44;;;;;;;13.60;5.10;;;7.40;99.90;;;;;;5111355;28;20216;-64
2024/01/23 09:31:12;;;;;;;12.40;4.80;;;7.40;99.90;;;;;;5111043;28;20186;-65
2024/01/23 09:33:40;;;;;;;10.87;4.40;;;7.40;99.90;;;;;;5110991;28;20234;-70
2024/01/23 09:36:10;;;;;;;13.17;4.83;;;7.50;99.90;;;;;;5117088;27;20187;-66
2024/01/23 09:38:39;;;;;;;13.57;4.30;;;7.50;99.90;;;;;;5127311;27;20589;-71
2024/01/23 09:41:12;;;;;;;15.87;5.03;;;7.60;99.90;;;;;;5131027;27;20206;-68
2024/01/23 09:43:43;;;;;;;10.80;4.87;;;7.70;99.90;;;;;;5131406;27;20275;-66
2024/01/23 09:46:14;;;;;;;9.07;4.30;;;7.60;99.90;;;;;;5131167;27;20708;-70
2024/01/23 09:48:42;;;;;;;18.63;5.50;;;7.70;99.90;;;;;;5130601;27;20312;-63
2024/01/23 09:51:14;;;;;;;12.60;5.23;;;7.60;99.90;;;;;;5131565;27;20699;-65
2024/01/23 09:53:45;;;;;;;24.03;7.83;;;7.50;99.90;;;;;;5130844;27;20245;-65
2024/01/23 09:56:14;;;;;;;15.10;4.63;;;7.70;99.90;;;;;;5131309;27;20222;-65
2024/01/23 09:58:43;;;;;;;12.30;4.90;;;7.60;99.90;;;;;;5131040;27;20637;-64
2024/01/23 10:01:12;;;;;;;13.33;4.90;;;7.60;99.90;;;;;;5131050;27;20261;-67
2024/01/23 10:03:48;;;;;;;11.87;4.60;;;7.60;99.90;;;;;;5130964;27;20191;-64
2024/01/23 10:06:16;;;;;;;14.50;4.67;;;7.50;99.90;;;;;;5131336;27;20196;-68
2024/01/23 10:08:46;;;;;;;15.23;5.07;;;7.70;99.90;;;;;;5130710;27;20230;-65
2024/01/23 10:11:15;;;;;;;9.67;5.00;;;7.70;99.90;;;;;;5130896;27;20201;-70
2024/01/23 10:13:43;;;;;;;9.53;4.03;;;7.70;99.90;;;;;;5130811;27;20257;-70
2024/01/23 10:16:12;;;;;;;8.93;4.67;;;7.60;99.90;;;;;;5130858;27;20207;-65
2024/01/23 10:18:40;;;;;;;10.50;5.07;;;7.70;99.90;;;;;;5130797;27;20198;-67
2024/01/23 10:21:09;;;;;;;12.80;4.23;;;7.60;99.90;;;;;;5130737;27;20267;-66
2024/01/23 10:23:40;;;;;;;15.37;4.63;;;7.60;99.90;;;;;;5130833;27;20293;-68
2024/01/23 10:26:10;;;;;;;11.57;3.87;;;7.60;99.90;;;;;;5130331;27;20295;-67
2024/01/23 10:28:38;;;;;;;12.07;4.50;;;7.50;99.90;;;;;;5130451;27;20203;-64
2024/01/23 10:31:06;;;;;;;13.37;4.57;;;7.50;99.90;;;;;;5130402;27;20216;-64
2024/01/23 10:33:37;;;;;;;10.03;4.60;;;7.60;99.90;;;;;;5130520;27;20196;-68
2024/01/23 10:36:08;;;;;;;8.47;3.97;;;7.50;99.90;;;;;;5130395;27;20201;-68
2024/01/23 10:38:37;;;;;;;11.57;5.73;;;7.60;99.90;;;;;;5129850;27;20587;-68
2024/01/23 10:41:05;;;;;;;10.87;4.43;;;7.80;99.90;;;;;;5130184;27;20196;-67
2024/01/23 10:43:35;;;;;;;12.37;4.77;;;7.70;99.90;;;;;;5130049;27;20248;-69
2024/01/23 10:46:04;;;;;;;12.53;4.27;;;7.80;99.90;;;;;;5130170;27;20276;-69
2024/01/23 10:48:32;;;;;;;10.30;4.33;;;7.90;99.90;;;;;;5130050;27;20190;-69
2024/01/23 10:51:11;;;;;;;7.50;4.10;;;7.90;99.90;;;;;;5129758;27;20222;-68
2024/01/23 10:53:48;;;;;;;12.73;4.60;;;7.70;99.90;;;;;;5129830;27;20196;-65
2024/01/23 10:56:18;;;;;;;12.83;5.00;;;7.40;99.90;;;;;;5130029;27;20250;-65
2024/01/23 10:58:56;;;;;;;15.63;4.50;;;7.50;99.90;;;;;;5130018;27;20195;-66
2024/01/23 11:01:25;;;;;;;10.23;4.53;;;7.60;99.90;;;;;;5129976;27;20252;-65
2024/01/23 11:03:54;;;;;;;12.47;5.30;;;7.70;99.90;;;;;;5129358;27;20728;-68
2024/01/23 11:06:26;;;;;;;7.13;4.33;;;7.60;99.90;;;;;;5129949;27;20195;-69
2024/01/23 11:09:01;;;;;;;11.90;4.07;;;7.60;99.90;;;;;;5129723;27;20743;-68
2024/01/23 11:11:36;;;;;;;12.40;4.80;;;7.60;99.90;;;;;;5129981;27;20216;-71
2024/01/23 11:14:12;;;;;;;5.30;3.73;;;7.80;99.90;;;;;;5129658;27;20199;-66
2024/01/23 11:16:40;;;;;;;11.70;3.80;;;7.90;99.90;;;;;;5129708;27;20853;-68
2024/01/23 11:19:08;;;;;;;7.83;4.10;;;8.10;99.90;;;;;;5129488;27;20201;-68
2024/01/23 11:21:37;;;;;;;5.73;3.70;;;8.00;99.90;;;;;;5129775;27;20275;-67
2024/01/23 11:24:06;;;;;;;7.30;4.17;;;7.90;99.90;;;;;;5129591;27;20197;-64
2024/01/23 11:26:35;;;;;;;8.70;4.10;;;7.90;99.90;;;;;;5129428;27;20199;-69
2024/01/23 11:29:07;;;;;;;12.40;5.17;;;7.90;99.90;;;;;;5129427;27;20196;-67
2024/01/23 11:31:39;;;;;;;8.83;4.80;;;7.80;99.90;;;;;;5129371;27;20200;-69
2024/01/23 11:34:40;;;;;;;10.83;4.60;;;7.80;99.90;;;;;;5129220;27;20196;-67
2024/01/23 11:37:46;;;;;;;10.97;3.53;;;8.00;99.90;;;;;;5129147;28;20291;-67
2024/01/23 11:40:37;;;;;;;8.87;4.20;;;7.80;99.90;;;;;;5045685;28;20198;-69
2024/01/23 11:43:22;;;;;;;13.23;4.50;;;7.50;99.90;;;;;;5045852;28;20281;-67
2024/01/23 11:45:52;;;;;;;9.40;3.93;;;7.60;99.90;;;;;;5045931;28;20694;-68
2024/01/23 11:48:20;;;;;;;14.73;4.17;;;7.70;99.90;;;;;;5045756;28;20723;-69
2024/01/23 11:50:53;;;;;;;11.17;4.40;;;7.50;99.90;;;;;;5045274;28;20311;-68
2024/01/23 11:53:25;;;;;;;10.40;4.37;;;7.40;99.90;;;;;;5045520;28;20223;-66
2024/01/23 11:55:54;;;;;;;11.20;4.30;;;7.60;99.90;;;;;;5045689;28;20200;-69
2024/01/23 11:58:22;;;;;;;7.70;4.13;;;7.70;99.90;;;;;;5045321;28;20200;-67
2024/01/23 12:00:52;;;;;;;10.20;4.77;;;7.60;99.90;;;;;;5045653;28;20210;-65
2024/01/23 12:03:21;;;;;;;10.20;4.00;;;7.70;99.90;;;;;;5045636;28;20237;-66
2024/01/23 12:05:52;;;;;;;7.90;5.00;;;7.40;99.90;;;;;;5045481;28;20204;-67
2024/01/23 12:08:21;;;;;;;6.13;3.83;;;7.50;99.90;;;;;;5045200;28;20191;-65
2024/01/23 12:10:50;;;;;;;7.87;4.00;;;7.50;99.90;;;;;;5074193;28;20238;-67
2024/01/23 12:13:18;;;;;;;8.73;3.50;;;7.30;99.90;;;;;;5129340;28;20547;-66
2024/01/23 12:15:47;;;;;;;4.80;3.33;;;7.40;99.90;;;;;;5130680;27;20195;-67
2024/01/23 12:18:21;;;;;;;5.63;4.00;;;7.30;99.90;;;;;;5133253;27;20677;-66
2024/01/23 12:20:50;;;;;;;8.47;3.70;;;7.00;99.90;;;;;;5114273;27;20848;-66
2024/01/23 12:23:19;;;;;;;5.70;3.60;;;6.80;99.90;;;;;;5133229;27;20539;-65
2024/01/23 12:25:48;;;;;;;8.23;3.93;;;6.80;99.90;;;;;;5133280;27;20191;-62
2024/01/23 12:28:17;;;;;;;6.73;3.70;;;6.80;99.90;;;;;;5133022;27;20205;-70
2024/01/23 12:30:46;;;;;;;5.57;3.47;;;6.70;99.90;;;;;;5132771;27;20223;-66
2024/01/23 12:33:17;;;;;;;6.50;4.13;;;6.80;99.90;;;;;;5133010;27;20576;-68
2024/01/23 12:35:48;;;;;;;6.30;3.57;;;6.60;99.90;;;;;;5132787;27;20195;-66
2024/01/23 12:38:16;;;;;;;7.40;4.10;;;6.70;99.90;;;;;;5132556;27;20285;-69
2024/01/23 12:40:45;;;;;;;7.97;4.10;;;6.50;99.90;;;;;;5132725;27;20590;-67
2024/01/23 12:43:15;;;;;;;8.70;3.97;;;6.70;99.90;;;;;;5132679;27;20208;-65
2024/01/23 12:45:43;;;;;;;6.33;3.43;;;6.70;99.90;;;;;;5132748;27;20193;-65
2024/01/23 12:48:19;;;;;;;6.33;3.77;;;6.60;99.90;;;;;;5132656;27;20196;-64
2024/01/23 12:50:48;;;;;;;4.57;3.40;;;6.60;99.90;;;;;;5132507;27;20223;-67
2024/01/23 12:53:18;;;;;;;8.47;4.37;;;6.60;99.90;;;;;;5132496;27;20203;-67
2024/01/23 12:55:52;;;;;;;6.80;3.90;;;6.70;99.90;;;;;;5132453;27;20199;-65
2024/01/23 12:58:21;;;;;;;10.80;6.07;;;6.60;99.90;;;;;;5132385;27;20298;-65
2024/01/23 13:00:50;;;;;;;6.37;4.23;;;6.80;99.90;;;;;;5132314;27;20207;-66